ALQDS

一个偏门的知识点。虽然没找到正式的中文翻译,但是我们觉得ALQDS应该代表所有扇区的意思。

METAR RPVM 080600Z 02010KT 9999 SCT018CB BKN300 33/24 Q1007 A2976 CB, ALQDS=

ALQDS

 

RPVM总是在实况报里发一些难懂的缩写。

发表评论